createdAt,value
2023-05-10T00:02:32.760Z,7.43
2023-05-10T00:05:35.905Z,7.20
2023-05-10T00:08:38.906Z,7.20
2023-05-10T00:11:42.074Z,6.13
2023-05-10T00:14:45.079Z,6.70
2023-05-10T00:17:49.709Z,7.20
2023-05-10T00:20:52.875Z,6.63
2023-05-10T00:23:56.104Z,6.93
2023-05-10T00:26:59.196Z,7.00
2023-05-10T00:30:02.252Z,7.23
2023-05-10T00:33:07.091Z,7.20
2023-05-10T00:36:10.538Z,7.40
2023-05-10T00:39:16.335Z,7.87
2023-05-10T00:42:19.365Z,7.33
2023-05-10T00:45:22.602Z,7.43
2023-05-10T00:48:27.115Z,7.83
2023-05-10T00:51:30.289Z,8.10
2023-05-10T00:54:33.484Z,7.43
2023-05-10T00:57:36.584Z,7.33
2023-05-10T01:00:44.298Z,7.47
2023-05-10T01:03:49.139Z,7.27
2023-05-10T01:06:52.195Z,7.60
2023-05-10T01:09:55.446Z,7.50
2023-05-10T01:13:01.380Z,7.47
2023-05-10T01:16:04.586Z,7.63
2023-05-10T01:19:19.109Z,7.77
2023-05-10T01:22:44.668Z,7.53
2023-05-10T01:26:08.197Z,8.37
2023-05-10T01:29:26.637Z,7.70
2023-05-10T01:32:37.415Z,7.07
2023-05-10T01:35:45.155Z,7.73
2023-05-10T01:38:53.726Z,7.17
2023-05-10T01:42:04.421Z,7.17
2023-05-10T01:45:15.900Z,7.47
2023-05-10T01:48:21.985Z,7.73
2023-05-10T01:51:28.450Z,7.63
2023-05-10T01:54:33.190Z,7.60
2023-05-10T01:57:37.936Z,7.30
2023-05-10T02:00:46.328Z,7.90
2023-05-10T02:03:52.768Z,6.87
2023-05-10T02:06:57.097Z,7.33
2023-05-10T02:10:01.334Z,7.53
2023-05-10T02:13:05.380Z,7.63
2023-05-10T02:16:09.323Z,7.23
2023-05-10T02:19:16.203Z,7.03
2023-05-10T02:22:20.404Z,7.27
2023-05-10T02:25:25.449Z,7.10
2023-05-10T02:28:29.546Z,7.40
2023-05-10T02:31:34.625Z,7.27
2023-05-10T02:34:40.491Z,7.77
2023-05-10T02:37:43.999Z,7.50
2023-05-10T02:40:48.357Z,7.57
2023-05-10T02:43:54.107Z,7.27
2023-05-10T02:46:57.952Z,7.10
2023-05-10T02:50:02.626Z,6.80
2023-05-10T02:53:12.519Z,7.50
2023-05-10T02:56:22.649Z,7.20
2023-05-10T02:59:28.580Z,7.30
2023-05-10T03:02:31.968Z,7.50
2023-05-10T03:05:36.594Z,6.93
2023-05-10T03:08:39.800Z,7.10
2023-05-10T03:11:52.522Z,7.10
2023-05-10T03:15:02.691Z,7.00
2023-05-10T03:18:11.688Z,7.00
2023-05-10T03:21:19.885Z,6.73
2023-05-10T03:24:25.072Z,7.20
2023-05-10T03:27:29.873Z,7.37
2023-05-10T03:30:33.657Z,6.30
2023-05-10T03:33:36.680Z,6.80
2023-05-10T03:36:41.394Z,6.63
2023-05-10T03:39:44.534Z,7.17
2023-05-10T03:42:47.710Z,7.00
2023-05-10T03:45:50.710Z,7.13
2023-05-10T03:48:53.753Z,6.80
2023-05-10T03:51:58.337Z,7.33
2023-05-10T03:55:01.405Z,7.10
2023-05-10T03:58:04.490Z,7.20
2023-05-10T04:01:07.548Z,6.93
2023-05-10T04:04:10.944Z,6.50
2023-05-10T04:07:15.330Z,6.60
2023-05-10T04:10:18.762Z,6.87
2023-05-10T04:13:22.245Z,7.40
2023-05-10T04:16:25.447Z,7.23
2023-05-10T04:19:31.788Z,6.73
2023-05-10T04:22:36.216Z,6.57
2023-05-10T04:25:39.221Z,6.70
2023-05-10T04:28:42.208Z,6.43
2023-05-10T04:31:45.397Z,6.70
2023-05-10T04:34:49.292Z,6.63
2023-05-10T04:37:53.667Z,6.83
2023-05-10T04:40:56.942Z,6.73
2023-05-10T04:44:00.048Z,6.50
2023-05-10T04:50:31.575Z,6.23
2023-05-10T04:53:36.124Z,7.03
2023-05-10T04:56:39.334Z,6.37
2023-05-10T04:59:42.310Z,6.30
2023-05-10T05:02:46.355Z,6.10
2023-05-10T05:05:49.444Z,6.47
2023-05-10T05:08:53.914Z,6.43
2023-05-10T05:11:57.080Z,5.80
2023-05-10T05:15:00.241Z,5.53
2023-05-10T05:18:03.547Z,5.77
2023-05-10T05:21:16.193Z,5.83
2023-05-10T05:24:20.586Z,5.83
2023-05-10T05:27:25.091Z,5.63
2023-05-10T05:30:28.217Z,5.60
2023-05-10T05:33:31.218Z,5.90
2023-05-10T05:36:35.839Z,5.40
2023-05-10T05:39:41.386Z,5.47
2023-05-10T05:42:44.437Z,5.23
2023-05-10T05:45:47.442Z,4.80
2023-05-10T05:48:50.665Z,4.77
2023-05-10T05:51:53.626Z,5.60
2023-05-10T05:54:57.999Z,4.87
2023-05-10T05:58:01.017Z,4.93
2023-05-10T06:01:04.318Z,4.73
2023-05-10T06:04:07.438Z,5.03
2023-05-10T06:07:10.743Z,4.47
2023-05-10T06:10:15.030Z,4.60
2023-05-10T06:13:18.161Z,4.63
2023-05-10T06:16:21.182Z,4.50
2023-05-10T06:19:24.247Z,4.50
2023-05-10T06:22:27.224Z,4.20
2023-05-10T06:25:31.596Z,4.13
2023-05-10T06:28:34.686Z,5.03
2023-05-10T06:31:37.788Z,4.10
2023-05-10T06:34:44.300Z,5.30
2023-05-10T06:37:47.669Z,4.60
2023-05-10T06:40:52.018Z,4.10
2023-05-10T06:43:55.061Z,4.63
2023-05-10T06:46:58.119Z,4.83
2023-05-10T06:50:01.555Z,4.00
2023-05-10T06:53:04.814Z,4.17
2023-05-10T06:56:09.215Z,4.10
2023-05-10T06:59:13.525Z,4.53
2023-05-10T07:02:17.478Z,4.60
2023-05-10T07:05:21.374Z,4.27
2023-05-10T07:08:24.583Z,4.97
2023-05-10T07:11:29.059Z,3.80
2023-05-10T07:14:32.012Z,3.70
2023-05-10T07:17:36.296Z,4.53
2023-05-10T07:20:39.503Z,3.83
2023-05-10T07:23:44.829Z,4.23
2023-05-10T07:26:49.601Z,3.90
2023-05-10T07:29:52.582Z,4.27
2023-05-10T07:32:56.398Z,3.70
2023-05-10T07:35:59.547Z,4.07
2023-05-10T07:39:04.288Z,3.70
2023-05-10T07:42:09.277Z,4.80
2023-05-10T07:45:12.583Z,4.17
2023-05-10T07:48:15.597Z,4.33
2023-05-10T07:51:18.553Z,3.73
2023-05-10T07:54:21.597Z,3.87
2023-05-10T07:57:26.001Z,3.50
2023-05-10T08:00:29.467Z,3.90
2023-05-10T08:03:32.545Z,4.23
2023-05-10T08:06:35.675Z,4.20
2023-05-10T08:09:38.852Z,4.27
2023-05-10T08:12:43.170Z,4.00
2023-05-10T08:15:46.191Z,3.80
2023-05-10T08:18:50.257Z,3.80
2023-05-10T08:21:56.311Z,4.43
2023-05-10T08:24:59.339Z,4.23
2023-05-10T08:28:05.173Z,3.67
2023-05-10T08:31:08.356Z,3.93
2023-05-10T08:34:11.682Z,3.70
2023-05-10T08:37:14.930Z,4.37
2023-05-10T08:40:17.879Z,4.00
2023-05-10T08:43:22.305Z,4.40
2023-05-10T08:46:25.563Z,3.63
2023-05-10T08:49:32.406Z,4.20
2023-05-10T08:52:40.020Z,3.83
2023-05-10T08:55:43.798Z,4.00
2023-05-10T08:58:49.877Z,3.70
2023-05-10T09:01:54.543Z,3.80
2023-05-10T09:04:57.700Z,3.47
2023-05-10T09:08:01.430Z,4.20
2023-05-10T09:11:04.789Z,3.90
2023-05-10T09:14:13.955Z,4.63
2023-05-10T09:17:17.263Z,3.10
2023-05-10T09:20:21.388Z,3.87
2023-05-10T09:23:29.496Z,3.93
2023-05-10T09:26:32.602Z,4.63
2023-05-10T09:29:43.964Z,3.80
2023-05-10T09:32:49.941Z,3.97
2023-05-10T09:35:54.280Z,4.30
2023-05-10T09:38:57.252Z,3.80
2023-05-10T09:42:01.728Z,4.37
2023-05-10T09:45:08.821Z,3.70
2023-05-10T09:48:11.805Z,3.93
2023-05-10T09:51:22.025Z,3.80
2023-05-10T09:54:25.595Z,3.53
2023-05-10T09:57:28.618Z,3.67
2023-05-10T10:00:38.395Z,3.60
2023-05-10T10:03:44.855Z,3.70
2023-05-10T10:06:47.831Z,3.53
2023-05-10T10:09:50.990Z,3.93
2023-05-10T10:12:54.050Z,3.30
2023-05-10T10:15:58.991Z,3.87
2023-05-10T10:19:02.677Z,3.90
2023-05-10T10:22:05.882Z,3.77
2023-05-10T10:25:10.281Z,3.70
2023-05-10T10:28:26.065Z,3.20
2023-05-10T10:31:39.749Z,4.07
2023-05-10T10:34:43.071Z,4.13
2023-05-10T10:37:47.497Z,3.80
2023-05-10T10:41:03.518Z,3.80
2023-05-10T10:44:28.510Z,3.90
2023-05-10T10:47:34.206Z,3.57
2023-05-10T10:50:46.781Z,3.60
2023-05-10T10:53:50.570Z,3.90
2023-05-10T10:57:14.959Z,4.00
2023-05-10T11:00:26.530Z,3.83
2023-05-10T11:03:30.881Z,4.10
2023-05-10T11:06:35.564Z,3.70
2023-05-10T11:09:42.228Z,4.00
2023-05-10T11:12:54.343Z,4.07
2023-05-10T11:15:59.835Z,5.73
2023-05-10T11:19:06.911Z,3.50
2023-05-10T11:22:16.347Z,3.80
2023-05-10T11:25:19.925Z,4.17
2023-05-10T11:28:23.034Z,3.37
2023-05-10T11:31:28.246Z,4.03
2023-05-10T11:34:34.473Z,3.80
2023-05-10T11:37:39.021Z,3.73
2023-05-10T11:40:44.497Z,3.50
2023-05-10T11:43:49.885Z,3.53
2023-05-10T11:46:53.917Z,3.73
2023-05-10T11:49:59.121Z,3.70
2023-05-10T11:53:02.095Z,4.00
2023-05-10T11:56:06.355Z,3.50
2023-05-10T11:59:09.649Z,3.70
2023-05-10T12:02:14.299Z,3.50
2023-05-10T12:05:19.107Z,3.97
2023-05-10T12:08:24.413Z,3.33
2023-05-10T12:11:28.403Z,3.43
2023-05-10T12:14:34.417Z,3.20
2023-05-10T12:17:41.914Z,4.20
2023-05-10T12:20:47.610Z,3.63
2023-05-10T12:23:53.375Z,3.37
2023-05-10T12:26:56.565Z,3.60
2023-05-10T12:30:01.885Z,3.93
2023-05-10T12:33:09.635Z,3.80
2023-05-10T12:36:15.559Z,3.60
2023-05-10T12:39:18.738Z,3.20
2023-05-10T12:42:21.846Z,4.03
2023-05-10T12:45:24.835Z,3.70
2023-05-10T12:48:29.669Z,3.90
2023-05-10T12:51:34.158Z,3.87
2023-05-10T12:54:37.451Z,3.30
2023-05-10T12:57:40.451Z,3.40
2023-05-10T13:00:44.710Z,4.20
2023-05-10T13:03:47.717Z,3.10
2023-05-10T13:06:52.023Z,3.87
2023-05-10T13:09:54.957Z,3.43
2023-05-10T13:12:57.962Z,3.80
2023-05-10T13:16:00.966Z,4.57
2023-05-10T13:19:06.118Z,3.50
2023-05-10T13:22:10.588Z,4.03
2023-05-10T13:25:13.903Z,5.33
2023-05-10T13:28:16.904Z,3.60
2023-05-10T13:31:20.041Z,3.60
2023-05-10T13:34:23.172Z,3.03
2023-05-10T13:37:27.920Z,3.10
2023-05-10T13:40:31.921Z,3.60
2023-05-10T13:43:34.941Z,3.70
2023-05-10T13:46:39.522Z,3.60
2023-05-10T13:49:42.560Z,3.70
2023-05-10T13:52:46.890Z,3.40
2023-05-10T13:55:50.043Z,3.43
2023-05-10T13:58:53.295Z,3.50
2023-05-10T14:01:56.371Z,3.10
2023-05-10T14:04:59.408Z,3.63
2023-05-10T14:08:04.687Z,3.47
2023-05-10T14:11:07.719Z,3.40
2023-05-10T14:14:10.745Z,3.90
2023-05-10T14:17:13.848Z,3.13
2023-05-10T14:20:17.024Z,3.97
2023-05-10T14:23:25.018Z,3.60
2023-05-10T14:26:28.789Z,3.90
2023-05-10T14:29:31.951Z,3.33
2023-05-10T14:32:35.143Z,4.30
2023-05-10T14:35:38.766Z,3.30
2023-05-10T14:38:43.133Z,3.30
2023-05-10T14:41:46.684Z,3.30
2023-05-10T14:44:49.648Z,3.40
2023-05-10T14:47:52.846Z,3.60
2023-05-10T14:50:55.819Z,4.27
2023-05-10T14:54:00.552Z,3.67
2023-05-10T14:57:03.523Z,3.60
2023-05-10T15:00:07.716Z,3.70
2023-05-10T15:03:11.535Z,3.33
2023-05-10T15:06:16.598Z,3.23
2023-05-10T15:09:21.302Z,4.20
2023-05-10T15:12:24.364Z,3.50
2023-05-10T15:15:28.327Z,3.90
2023-05-10T15:18:31.439Z,4.13
2023-05-10T15:21:39.707Z,3.53
2023-05-10T15:24:44.612Z,3.80
2023-05-10T15:27:49.137Z,3.70
2023-05-10T15:30:52.219Z,3.70
2023-05-10T15:34:00.067Z,3.60
2023-05-10T15:37:03.031Z,3.50
2023-05-10T15:40:08.754Z,4.23
2023-05-10T15:43:11.722Z,3.87
2023-05-10T15:46:14.684Z,3.80
2023-05-10T15:49:18.317Z,4.40
2023-05-10T15:52:23.721Z,3.70
2023-05-10T15:55:28.204Z,4.77
2023-05-10T15:58:31.663Z,3.10
2023-05-10T16:01:35.426Z,4.00
2023-05-10T16:04:39.097Z,3.77
2023-05-10T16:07:42.360Z,3.73
2023-05-10T16:10:46.799Z,3.70
2023-05-10T16:13:49.722Z,3.73
2023-05-10T16:16:52.827Z,4.23
2023-05-10T16:19:58.275Z,3.90
2023-05-10T16:23:04.976Z,3.80
2023-05-10T16:26:09.341Z,3.97
2023-05-10T16:29:12.283Z,3.83
2023-05-10T16:32:15.276Z,3.80
2023-05-10T16:35:18.437Z,4.00
2023-05-10T16:38:21.807Z,4.30
2023-05-10T16:41:26.479Z,4.40
2023-05-10T16:44:29.444Z,4.37
2023-05-10T16:47:32.481Z,4.40
2023-05-10T16:50:35.523Z,4.70
2023-05-10T16:53:38.818Z,4.90
2023-05-10T16:56:43.199Z,4.90
2023-05-10T16:59:46.127Z,5.57
2023-05-10T17:02:49.565Z,5.90
2023-05-10T17:05:52.634Z,5.73
2023-05-10T17:08:55.620Z,5.87
2023-05-10T17:12:00.101Z,6.10
2023-05-10T17:15:03.207Z,6.20
2023-05-10T17:18:07.448Z,6.40
2023-05-10T17:21:11.387Z,6.37
2023-05-10T17:24:15.426Z,5.93
2023-05-10T17:27:20.086Z,6.13
2023-05-10T17:30:26.385Z,6.67
2023-05-10T17:33:29.417Z,6.30
2023-05-10T17:36:32.440Z,6.67
2023-05-10T17:39:36.756Z,6.33
2023-05-10T17:42:41.927Z,6.00
2023-05-10T17:45:46.639Z,7.17
2023-05-10T17:48:49.672Z,7.20
2023-05-10T17:51:52.712Z,6.50
2023-05-10T17:54:55.817Z,6.97
2023-05-10T17:58:00.827Z,6.40
2023-05-10T18:01:03.933Z,6.00
2023-05-10T18:04:07.842Z,9.10
2023-05-10T18:07:11.192Z,7.03
2023-05-10T18:10:14.146Z,6.47
2023-05-10T18:13:18.634Z,6.50
2023-05-10T18:16:21.748Z,6.80
2023-05-10T18:19:25.710Z,6.30
2023-05-10T18:22:28.700Z,5.80
2023-05-10T18:25:31.930Z,5.90
2023-05-10T18:28:36.849Z,7.43
2023-05-10T18:31:40.262Z,6.97
2023-05-10T18:34:43.331Z,6.10
2023-05-10T18:37:46.503Z,6.37
2023-05-10T18:40:51.504Z,6.93
2023-05-10T18:43:56.032Z,6.73
2023-05-10T18:46:59.297Z,6.43
2023-05-10T18:50:03.896Z,6.67
2023-05-10T18:53:08.640Z,5.50
2023-05-10T18:56:11.746Z,7.00
2023-05-10T18:59:18.453Z,6.27
2023-05-10T19:02:22.876Z,7.20
2023-05-10T19:05:30.048Z,6.60
2023-05-10T19:08:33.168Z,7.40
2023-05-10T19:11:36.513Z,6.63
2023-05-10T19:14:40.999Z,6.23
2023-05-10T19:17:45.982Z,6.43
2023-05-10T19:20:49.140Z,6.43
2023-05-10T19:23:52.213Z,6.40
2023-05-10T19:26:56.416Z,6.90
2023-05-10T19:30:02.066Z,6.10
2023-05-10T19:33:05.540Z,6.10
2023-05-10T19:36:09.100Z,5.90
2023-05-10T19:39:13.026Z,6.00
2023-05-10T19:42:16.187Z,6.87
2023-05-10T19:45:20.959Z,6.90
2023-05-10T19:48:23.965Z,6.63
2023-05-10T19:51:27.647Z,7.03
2023-05-10T19:54:30.897Z,6.87
2023-05-10T19:57:34.135Z,6.63
2023-05-10T20:00:38.500Z,6.97
2023-05-10T20:03:41.565Z,6.90
2023-05-10T20:06:44.667Z,6.90
2023-05-10T20:09:47.823Z,6.43
2023-05-10T20:12:52.406Z,6.73
2023-05-10T20:15:58.659Z,6.90
2023-05-10T20:19:01.786Z,6.93
2023-05-10T20:22:05.315Z,7.20
2023-05-10T20:25:10.071Z,6.67
2023-05-10T20:28:13.112Z,6.60
2023-05-10T20:31:18.304Z,6.80
2023-05-10T20:34:21.331Z,7.13
2023-05-10T20:37:24.787Z,6.90
2023-05-10T20:40:28.103Z,6.60
2023-05-10T20:43:31.256Z,6.47
2023-05-10T20:46:35.870Z,6.30
2023-05-10T20:49:39.224Z,6.10
2023-05-10T20:52:42.976Z,5.97
2023-05-10T20:55:46.010Z,6.47
2023-05-10T20:58:49.184Z,7.10
2023-05-10T21:01:55.940Z,7.17
2023-05-10T21:05:00.784Z,7.27
2023-05-10T21:08:03.805Z,7.13
2023-05-10T21:11:06.903Z,6.83
2023-05-10T21:14:10.291Z,7.63
2023-05-10T21:17:14.829Z,7.93
2023-05-10T21:20:25.331Z,7.03
2023-05-10T21:23:28.688Z,7.03
2023-05-10T21:26:31.787Z,7.23
2023-05-10T21:29:34.957Z,8.53
2023-05-10T21:32:39.464Z,8.53
2023-05-10T21:35:42.975Z,7.87
2023-05-10T21:38:46.635Z,7.40
2023-05-10T21:41:49.937Z,7.67
2023-05-10T21:44:53.766Z,7.73
2023-05-10T21:47:58.301Z,8.37
2023-05-10T21:51:01.593Z,8.10
2023-05-10T21:54:05.259Z,9.03
2023-05-10T21:57:08.600Z,8.97
2023-05-10T22:00:18.094Z,9.40
2023-05-10T22:03:23.005Z,8.70
2023-05-10T22:06:26.300Z,7.60
2023-05-10T22:09:29.724Z,8.47
2023-05-10T22:12:32.818Z,7.90
2023-05-10T22:15:36.682Z,9.00
2023-05-10T22:18:41.311Z,7.97
2023-05-10T22:21:44.484Z,7.93
2023-05-10T22:24:47.665Z,7.70
2023-05-10T22:27:51.119Z,7.60
2023-05-10T22:30:54.244Z,7.20
2023-05-10T22:33:58.781Z,7.13
2023-05-10T22:37:03.673Z,7.67
2023-05-10T22:40:08.199Z,8.33
2023-05-10T22:43:11.249Z,7.83
2023-05-10T22:46:14.594Z,8.20
2023-05-10T22:49:19.117Z,8.50
2023-05-10T22:52:22.831Z,7.90
2023-05-10T22:55:26.172Z,8.33
2023-05-10T22:58:30.712Z,7.80
2023-05-10T23:01:33.854Z,8.20
2023-05-10T23:04:38.483Z,8.77
2023-05-10T23:07:41.638Z,7.83
2023-05-10T23:10:44.911Z,8.53
2023-05-10T23:13:48.076Z,8.87
2023-05-10T23:16:51.152Z,8.13
2023-05-10T23:19:55.767Z,9.67
2023-05-10T23:22:59.565Z,8.63
2023-05-10T23:26:04.212Z,9.40
2023-05-10T23:29:07.408Z,8.53
2023-05-10T23:32:10.772Z,9.20
2023-05-10T23:35:15.582Z,9.53
2023-05-10T23:38:19.006Z,8.90
2023-05-10T23:41:22.085Z,10.43
2023-05-10T23:44:25.212Z,8.47
2023-05-10T23:47:28.252Z,9.13
2023-05-10T23:50:33.024Z,8.80
2023-05-10T23:53:37.749Z,8.90
2023-05-10T23:56:40.792Z,9.23
2023-05-10T23:59:43.968Z,9.87
